Time;durP1;ratioP1;P1;durP2;ratioP2;P2;SDS_P1;SDS_P2;PMS_P1;PMS_P2;Temp;Humidity;BMP_temperature;BMP_pressure;BME280_temperature;BME280_humidity;BME280_pressure;Samples;Min_cycle;Max_cycle;Signal;HPM_P1;HPM_P2
2022/01/21 00:01:22;;;;;;;41.95;29.42;;;;;;;;;;4913631;29;20092;-70
2022/01/21 00:03:50;;;;;;;38.92;30.70;;;;;;;;;;4916679;29;20513;-70
2022/01/21 00:06:17;;;;;;;39.80;27.58;;;;;;;;;;4918888;29;20055;-70
2022/01/21 00:08:46;;;;;;;45.80;28.83;;;;;;;;;;4919309;29;20083;-71
2022/01/21 00:11:14;;;;;;;35.72;29.35;;;;;;;;;;4919008;29;20076;-71
2022/01/21 00:13:41;;;;;;;34.45;30.00;;;;;;;;;;4917796;29;20054;-70
2022/01/21 00:16:10;;;;;;;33.38;26.42;;;;;;;;;;4917805;29;20583;-70
2022/01/21 00:18:39;;;;;;;36.03;28.20;;;;;;;;;;4917652;29;20211;-71
2022/01/21 00:32:10;;;;;;;36.55;26.02;;;;;;;;;;4917678;29;20056;-71
2022/01/21 00:34:37;;;;;;;30.80;23.95;;;;;;;;;;4918477;29;20052;-71
2022/01/21 00:37:04;;;;;;;32.97;23.90;;;;;;;;;;4917272;29;20079;-71
2022/01/21 00:39:33;;;;;;;34.17;25.52;;;;;;;;;;4901879;29;20131;-70
2022/01/21 00:42:25;;;;;;;30.40;25.80;;;;;;;;;;4912803;29;20054;-71
2022/01/21 00:44:58;;;;;;;37.35;27.38;;;;;;;;;;4883115;29;20512;-71
2022/01/21 00:47:29;;;;;;;34.67;25.52;;;;;;;;;;4899711;29;20056;-71
2022/01/21 00:49:56;;;;;;;39.15;28.02;;;;;;;;;;4901399;29;20108;-71
2022/01/21 00:52:23;;;;;;;33.05;25.45;;;;;;;;;;4918441;29;20087;-71
2022/01/21 00:54:50;;;;;;;45.60;28.33;;;;;;;;;;4917149;29;20079;-71
2022/01/21 00:57:17;;;;;;;46.30;30.92;;;;;;;;;;4918273;29;20492;-71
2022/01/21 00:59:44;;;;;;;39.60;25.65;;;;;;;;;;4917103;29;20048;-71
2022/01/21 01:02:11;;;;;;;35.65;26.35;;;;;;;;;;4918110;29;20052;-71
2022/01/21 01:04:39;;;;;;;40.40;30.02;;;;;;;;;;4901089;29;20123;-72
2022/01/21 01:07:06;;;;;;;46.08;30.88;;;;;;;;;;4916764;29;20466;-71
2022/01/21 01:09:34;;;;;;;51.97;30.23;;;;;;;;;;4901121;29;20055;-71
2022/01/21 01:20:02;;;;;;;34.63;24.55;;;;;;;;;;4917821;29;20075;-70
2022/01/21 01:23:02;;;;;;;46.92;27.85;;;;;;;;;;4901306;29;20060;-70
2022/01/21 01:28:07;;;;;;;27.80;22.60;;;;;;;;;;4917793;29;20457;-70
2022/01/21 01:30:36;;;;;;;28.80;22.08;;;;;;;;;;4917767;29;20048;-71
2022/01/21 01:33:06;;;;;;;34.47;22.67;;;;;;;;;;4900636;29;20040;-70
2022/01/21 01:35:33;;;;;;;29.75;21.92;;;;;;;;;;4916232;29;20131;-70
2022/01/21 01:40:53;;;;;;;28.55;23.52;;;;;;;;;;4913750;29;20416;-70
2022/01/21 01:51:31;;;;;;;32.90;24.13;;;;;;;;;;4917505;29;20111;-71
2022/01/21 01:54:06;;;;;;;28.27;20.95;;;;;;;;;;4899908;29;20059;-72
2022/01/21 01:56:37;;;;;;;27.65;21.95;;;;;;;;;;4900279;29;20415;-72
2022/01/21 01:59:04;;;;;;;32.15;23.08;;;;;;;;;;4915715;29;20104;-71
2022/01/21 02:01:31;;;;;;;34.55;23.55;;;;;;;;;;4915568;29;20140;-71
2022/01/21 02:03:59;;;;;;;28.80;21.55;;;;;;;;;;4917044;29;20062;-71
2022/01/21 02:06:25;;;;;;;31.95;22.88;;;;;;;;;;4917011;29;20290;-71
2022/01/21 02:08:52;;;;;;;28.63;22.10;;;;;;;;;;4915769;29;20052;-71
2022/01/21 02:11:20;;;;;;;26.88;23.30;;;;;;;;;;4915466;29;20052;-71
2022/01/21 02:13:48;;;;;;;31.90;25.58;;;;;;;;;;4915611;29;20445;-71
2022/01/21 02:21:43;;;;;;;32.03;23.88;;;;;;;;;;4916818;29;20083;-71
2022/01/21 02:24:14;;;;;;;40.33;26.63;;;;;;;;;;4915070;29;20063;-71
2022/01/21 02:26:43;;;;;;;41.00;28.52;;;;;;;;;;4915230;29;20409;-71
2022/01/21 02:29:11;;;;;;;36.97;28.15;;;;;;;;;;4915047;29;20048;-71
2022/01/21 02:31:40;;;;;;;32.15;25.73;;;;;;;;;;4911928;29;20060;-71
2022/01/21 02:34:08;;;;;;;38.95;26.95;;;;;;;;;;4896225;29;20048;-71
2022/01/21 02:36:36;;;;;;;40.00;27.25;;;;;;;;;;4911480;29;20052;-71
2022/01/21 02:39:04;;;;;;;40.65;27.70;;;;;;;;;;4916373;29;20123;-71
2022/01/21 02:41:31;;;;;;;39.55;27.13;;;;;;;;;;4916610;29;20056;-71
2022/01/21 02:43:58;;;;;;;33.58;22.98;;;;;;;;;;4916410;29;20182;-72
2022/01/21 02:46:27;;;;;;;33.75;25.05;;;;;;;;;;4915117;29;20052;-71
2022/01/21 02:48:55;;;;;;;29.65;22.50;;;;;;;;;;4896322;29;20048;-71
2022/01/21 02:51:22;;;;;;;33.20;24.05;;;;;;;;;;4887981;29;20528;-70
2022/01/21 02:56:18;;;;;;;30.45;22.60;;;;;;;;;;4914777;29;20056;-71
2022/01/21 02:58:47;;;;;;;31.58;24.10;;;;;;;;;;4915045;29;20056;-71
2022/01/21 03:01:16;;;;;;;33.80;23.00;;;;;;;;;;4895563;29;20062;-71
2022/01/21 03:03:44;;;;;;;30.30;24.10;;;;;;;;;;4879974;29;20531;-71
2022/01/21 03:06:15;;;;;;;30.55;22.42;;;;;;;;;;4880381;29;20057;-71
2022/01/21 03:08:47;;;;;;;30.88;23.80;;;;;;;;;;4895289;29;20056;-71
2022/01/21 03:11:14;;;;;;;36.08;24.30;;;;;;;;;;4896276;29;20564;-71
2022/01/21 03:13:42;;;;;;;35.38;24.67;;;;;;;;;;4879779;29;20104;-71
2022/01/21 03:16:09;;;;;;;31.65;24.92;;;;;;;;;;4897195;29;20151;-71
2022/01/21 03:18:37;;;;;;;33.53;23.25;;;;;;;;;;4896995;29;20051;-71
2022/01/21 03:21:04;;;;;;;39.20;27.02;;;;;;;;;;4895850;29;20079;-71
2022/01/21 03:23:31;;;;;;;32.55;27.17;;;;;;;;;;4896815;29;20055;-71
2022/01/21 03:25:58;;;;;;;41.70;25.17;;;;;;;;;;4879943;29;20051;-71
2022/01/21 03:28:44;;;;;;;;;;;;;;;;;;4896465;29;20057;-71
2022/01/21 03:31:11;;;;;;;37.65;25.98;;;;;;;;;;4895191;29;19923;-71
2022/01/21 03:33:40;;;;;;;36.30;23.83;;;;;;;;;;4895186;29;20478;-71
2022/01/21 03:36:09;;;;;;;32.35;23.73;;;;;;;;;;4895198;29;20189;-71
2022/01/21 03:38:37;;;;;;;32.53;22.25;;;;;;;;;;4894701;29;20529;-71
2022/01/21 03:41:04;;;;;;;29.40;21.58;;;;;;;;;;4895288;29;20048;-71
2022/01/21 03:43:32;;;;;;;27.67;22.05;;;;;;;;;;4895638;29;20049;-71
2022/01/21 03:46:00;;;;;;;26.08;19.88;;;;;;;;;;4879872;29;20473;-71
2022/01/21 03:48:27;;;;;;;24.38;17.85;;;;;;;;;;4895070;29;20052;-71
2022/01/21 03:50:56;;;;;;;26.90;19.27;;;;;;;;;;4895156;29;20084;-71
2022/01/21 03:53:23;;;;;;;24.02;19.48;;;;;;;;;;4896193;29;20509;-71
2022/01/21 03:55:50;;;;;;;29.08;19.85;;;;;;;;;;4895402;29;20048;-71
2022/01/21 03:58:17;;;;;;;23.45;18.23;;;;;;;;;;4894827;29;20055;-71
2022/01/21 04:00:49;;;;;;;28.95;20.67;;;;;;;;;;4894596;29;20048;-71
2022/01/21 04:03:18;;;;;;;26.02;21.02;;;;;;;;;;4895080;29;20052;-71
2022/01/21 04:05:46;;;;;;;22.10;18.38;;;;;;;;;;4894977;29;20091;-71
2022/01/21 04:08:13;;;;;;;22.52;18.23;;;;;;;;;;4896194;29;20052;-71
2022/01/21 04:10:48;;;;;;;24.23;20.02;;;;;;;;;;4895196;29;20060;-71
2022/01/21 04:13:18;;;;;;;24.05;18.13;;;;;;;;;;4879454;29;20438;-71
2022/01/21 04:15:55;;;;;;;25.08;18.70;;;;;;;;;;4895002;29;20063;-70
2022/01/21 04:18:23;;;;;;;25.35;19.75;;;;;;;;;;4896539;29;20101;-71
2022/01/21 04:20:59;;;;;;;33.97;22.35;;;;;;;;;;4894978;29;20501;-71
2022/01/21 04:23:28;;;;;;;28.20;19.98;;;;;;;;;;4895104;29;20139;-71
2022/01/21 04:25:55;;;;;;;26.25;20.10;;;;;;;;;;4896315;29;20512;-71
2022/01/21 04:28:22;;;;;;;22.58;18.00;;;;;;;;;;4894838;29;20045;-71
2022/01/21 04:30:50;;;;;;;28.35;20.75;;;;;;;;;;4879456;29;20049;-71
2022/01/21 04:33:24;;;;;;;24.25;19.85;;;;;;;;;;4879256;29;20055;-71
2022/01/21 04:35:57;;;;;;;26.83;20.08;;;;;;;;;;4894604;29;20065;-71
2022/01/21 04:38:25;;;;;;;25.52;19.15;;;;;;;;;;4894803;29;20087;-70
2022/01/21 04:41:18;;;;;;;28.40;20.30;;;;;;;;;;4894804;29;20651;-71
2022/01/21 04:49:19;;;;;;;28.95;21.63;;;;;;;;;;4869055;29;20060;-71
2022/01/21 04:52:02;;;;;;;32.30;24.00;;;;;;;;;;4882899;29;20056;-71
2022/01/21 04:54:46;;;;;;;29.20;22.55;;;;;;;;;;4882482;29;20421;-71
2022/01/21 04:57:14;;;;;;;30.50;23.35;;;;;;;;;;4882761;29;20052;-71
2022/01/21 04:59:41;;;;;;;28.40;22.98;;;;;;;;;;4882443;29;20055;-71
2022/01/21 05:02:09;;;;;;;29.00;22.45;;;;;;;;;;4904977;29;20072;-70
2022/01/21 05:04:37;;;;;;;28.80;22.23;;;;;;;;;;4898215;29;20057;-70
2022/01/21 05:07:08;;;;;;;31.23;20.38;;;;;;;;;;4898461;29;20048;-70
2022/01/21 05:09:35;;;;;;;26.67;20.77;;;;;;;;;;4898742;29;20108;-71
2022/01/21 05:12:08;;;;;;;28.77;23.38;;;;;;;;;;4898027;29;20139;-71
2022/01/21 05:17:17;;;;;;;31.10;22.52;;;;;;;;;;4913822;29;20048;-71
2022/01/21 05:19:45;;;;;;;32.28;21.83;;;;;;;;;;4913134;29;20062;-71
2022/01/21 05:22:23;;;;;;;31.80;23.67;;;;;;;;;;4912536;29;20044;-71
2022/01/21 05:24:51;;;;;;;36.47;25.48;;;;;;;;;;4897574;29;20506;-71
2022/01/21 05:27:18;;;;;;;30.73;24.45;;;;;;;;;;4913851;29;20051;-71
2022/01/21 05:29:50;;;;;;;33.35;22.92;;;;;;;;;;4882650;29;20080;-71
2022/01/21 05:32:21;;;;;;;38.95;25.67;;;;;;;;;;4895380;29;20065;-71
2022/01/21 05:35:14;;;;;;;34.50;25.10;;;;;;;;;;4884705;29;20064;-71
2022/01/21 05:38:10;;;;;;;32.92;25.35;;;;;;;;;;4913532;29;20052;-71
2022/01/21 05:40:47;;;;;;;39.58;27.45;;;;;;;;;;4899006;29;20439;-71
2022/01/21 05:43:38;;;;;;;37.25;27.08;;;;;;;;;;4879576;29;20148;-71
2022/01/21 05:46:29;;;;;;;37.35;22.83;;;;;;;;;;4912837;29;20139;-71
2022/01/21 05:48:59;;;;;;;31.77;24.73;;;;;;;;;;4898743;29;20537;-71
2022/01/21 05:51:44;;;;;;;31.75;24.67;;;;;;;;;;4898578;29;20087;-71
2022/01/21 05:54:45;;;;;;;30.02;21.15;;;;;;;;;;4897327;29;20056;-71
2022/01/21 05:57:19;;;;;;;31.63;24.67;;;;;;;;;;4912137;29;20049;-71
2022/01/21 05:59:49;;;;;;;36.92;25.27;;;;;;;;;;4898372;29;20057;-71
2022/01/21 06:02:16;;;;;;;33.40;24.80;;;;;;;;;;4896973;29;20155;-70
2022/01/21 06:04:46;;;;;;;30.70;23.48;;;;;;;;;;4915780;29;20131;-69
2022/01/21 06:07:14;;;;;;;31.88;23.92;;;;;;;;;;4881673;29;20091;-68
2022/01/21 06:09:43;;;;;;;30.35;22.00;;;;;;;;;;4895721;29;20071;-70
2022/01/21 06:12:10;;;;;;;37.20;23.55;;;;;;;;;;4916001;29;20449;-69
2022/01/21 06:14:38;;;;;;;32.45;25.08;;;;;;;;;;4915193;29;20405;-70
2022/01/21 06:17:11;;;;;;;32.55;23.67;;;;;;;;;;4900005;29;20063;-70
2022/01/21 06:19:39;;;;;;;35.05;24.55;;;;;;;;;;4915099;29;20083;-72
2022/01/21 06:22:06;;;;;;;35.65;25.50;;;;;;;;;;4915769;29;20079;-71
2022/01/21 06:24:33;;;;;;;34.90;24.13;;;;;;;;;;4915279;29;20489;-71
2022/01/21 06:27:03;;;;;;;33.05;23.75;;;;;;;;;;4916312;29;20050;-72
2022/01/21 06:29:30;;;;;;;31.90;24.75;;;;;;;;;;4915013;29;20760;-72
2022/01/21 06:31:57;;;;;;;30.67;25.45;;;;;;;;;;4914956;29;20048;-73
2022/01/21 06:34:25;;;;;;;33.08;23.35;;;;;;;;;;4916331;29;20056;-73
2022/01/21 06:36:52;;;;;;;35.17;26.20;;;;;;;;;;4915681;29;20511;-71
2022/01/21 06:39:19;;;;;;;37.22;28.10;;;;;;;;;;4915264;29;20066;-70
2022/01/21 06:41:47;;;;;;;32.83;26.38;;;;;;;;;;4913402;29;20095;-75
2022/01/21 06:44:15;;;;;;;40.42;28.98;;;;;;;;;;4914448;29;20083;-72
2022/01/21 06:46:43;;;;;;;39.92;28.23;;;;;;;;;;4911783;29;20138;-72
2022/01/21 06:49:10;;;;;;;42.35;26.55;;;;;;;;;;4911420;29;20075;-72
2022/01/21 06:51:37;;;;;;;34.85;24.67;;;;;;;;;;4896852;29;20063;-74
2022/01/21 06:54:04;;;;;;;35.25;27.52;;;;;;;;;;4912523;29;20079;-75
2022/01/21 06:56:31;;;;;;;31.27;24.40;;;;;;;;;;4898787;29;20107;-76
2022/01/21 06:59:00;;;;;;;32.97;24.70;;;;;;;;;;4916349;29;20052;-77
2022/01/21 07:01:27;;;;;;;36.65;24.40;;;;;;;;;;4915743;29;20048;-74
2022/01/21 07:03:54;;;;;;;33.92;25.17;;;;;;;;;;4915078;29;20056;-73
2022/01/21 07:06:21;;;;;;;30.58;24.80;;;;;;;;;;4915013;29;20052;-76
2022/01/21 07:08:48;;;;;;;38.75;25.23;;;;;;;;;;4914658;29;20115;-75
2022/01/21 07:11:15;;;;;;;34.85;24.23;;;;;;;;;;4912328;29;20067;-76
2022/01/21 07:13:42;;;;;;;28.50;21.75;;;;;;;;;;4914343;29;20052;-75
2022/01/21 07:16:09;;;;;;;32.97;25.80;;;;;;;;;;4914567;29;20059;-73
2022/01/21 07:18:37;;;;;;;30.08;22.63;;;;;;;;;;4910081;29;20052;-75
2022/01/21 07:21:04;;;;;;;32.83;23.33;;;;;;;;;;4915057;29;20140;-75
2022/01/21 07:23:31;;;;;;;32.35;23.45;;;;;;;;;;4914026;29;20086;-74
2022/01/21 07:25:58;;;;;;;31.17;23.70;;;;;;;;;;4916206;29;20112;-77
2022/01/21 07:28:25;;;;;;;32.72;23.70;;;;;;;;;;4915074;29;20100;-83
2022/01/21 07:30:52;;;;;;;37.58;26.52;;;;;;;;;;4915850;29;20052;-79
2022/01/21 07:33:19;;;;;;;35.80;24.77;;;;;;;;;;4911139;29;20473;-83
2022/01/21 07:35:46;;;;;;;26.63;21.67;;;;;;;;;;4917360;29;20071;-80
2022/01/21 07:38:13;;;;;;;31.08;22.88;;;;;;;;;;4899348;29;20500;-81
2022/01/21 07:40:40;;;;;;;35.75;26.10;;;;;;;;;;4916397;29;20051;-80
2022/01/21 07:43:07;;;;;;;29.42;23.42;;;;;;;;;;4915816;29;20044;-79
2022/01/21 07:45:34;;;;;;;29.02;23.75;;;;;;;;;;4914552;29;20048;-77
2022/01/21 07:48:02;;;;;;;32.53;23.75;;;;;;;;;;4893300;29;20143;-79
2022/01/21 07:50:32;;;;;;;40.63;24.77;;;;;;;;;;4915700;29;20123;-81
2022/01/21 07:52:59;;;;;;;35.83;25.60;;;;;;;;;;4915223;29;20060;-79
2022/01/21 07:55:26;;;;;;;32.28;24.70;;;;;;;;;;4915222;29;20082;-82
2022/01/21 07:57:54;;;;;;;33.30;24.67;;;;;;;;;;4914865;29;20044;-81
2022/01/21 08:00:21;;;;;;;35.83;26.20;;;;;;;;;;4914761;29;20055;-79
2022/01/21 08:02:48;;;;;;;39.17;27.45;;;;;;;;;;4914624;29;20147;-80
2022/01/21 08:05:15;;;;;;;36.92;28.25;;;;;;;;;;4915055;29;20062;-79
2022/01/21 08:07:42;;;;;;;44.50;28.67;;;;;;;;;;4914405;29;20051;-78
2022/01/21 08:10:09;;;;;;;37.75;26.55;;;;;;;;;;4914653;29;20133;-79
2022/01/21 08:12:36;;;;;;;41.60;32.22;;;;;;;;;;4914561;29;20438;-79
2022/01/21 08:15:04;;;;;;;38.15;30.55;;;;;;;;;;4914730;29;20048;-81
2022/01/21 08:17:31;;;;;;;41.92;28.58;;;;;;;;;;4915061;29;20135;-79
2022/01/21 08:19:59;;;;;;;39.25;27.85;;;;;;;;;;4914425;29;20060;-80
2022/01/21 08:22:26;;;;;;;93.38;59.55;;;;;;;;;;4915155;29;20048;-80
2022/01/21 08:24:53;;;;;;;64.88;38.88;;;;;;;;;;4916461;29;20062;-81
2022/01/21 08:27:21;;;;;;;41.17;30.95;;;;;;;;;;4919688;29;20059;-82
2022/01/21 08:29:48;;;;;;;37.55;27.25;;;;;;;;;;4920212;29;20137;-82
2022/01/21 08:32:15;;;;;;;52.20;28.60;;;;;;;;;;4918806;29;20175;-83
2022/01/21 08:34:42;;;;;;;38.28;29.65;;;;;;;;;;4919119;29;20052;-82
2022/01/21 08:37:09;;;;;;;37.17;28.23;;;;;;;;;;4920210;29;20071;-85
2022/01/21 08:39:36;;;;;;;45.05;29.75;;;;;;;;;;4919047;29;20052;-82
2022/01/21 08:42:06;;;;;;;38.78;27.83;;;;;;;;;;4901371;29;20058;-82
2022/01/21 08:44:33;;;;;;;39.28;26.00;;;;;;;;;;4898529;29;20078;-82
2022/01/21 08:47:00;;;;;;;40.78;29.70;;;;;;;;;;4898876;29;20044;-82
2022/01/21 08:49:38;;;;;;;39.35;29.67;;;;;;;;;;4902655;29;20730;-82
2022/01/21 08:52:06;;;;;;;39.40;28.80;;;;;;;;;;4919198;29;20487;-82
2022/01/21 08:54:33;;;;;;;149.45;77.65;;;;;;;;;;4918924;29;20056;-82
2022/01/21 08:57:00;;;;;;;48.72;33.33;;;;;;;;;;4919082;29;20171;-82
2022/01/21 08:59:27;;;;;;;39.50;27.88;;;;;;;;;;4918589;29;20060;-78
2022/01/21 09:01:54;;;;;;;43.92;30.15;;;;;;;;;;4918324;29;20056;-81
2022/01/21 09:04:22;;;;;;;43.33;30.35;;;;;;;;;;4918501;29;20052;-82
2022/01/21 09:06:50;;;;;;;45.83;30.23;;;;;;;;;;4919875;29;20068;-82
2022/01/21 09:09:17;;;;;;;38.63;29.35;;;;;;;;;;4918034;29;20048;-81
2022/01/21 09:11:44;;;;;;;41.58;30.15;;;;;;;;;;4919328;29;20544;-83
2022/01/21 09:14:11;;;;;;;37.30;28.90;;;;;;;;;;4919420;29;20106;-82
2022/01/21 09:16:42;;;;;;;45.47;28.27;;;;;;;;;;4916971;29;20059;-81
2022/01/21 09:19:09;;;;;;;41.95;29.92;;;;;;;;;;4918007;29;20083;-82
2022/01/21 09:21:41;;;;;;;41.75;28.98;;;;;;;;;;4918226;29;20048;-82
2022/01/21 09:24:08;;;;;;;40.60;29.83;;;;;;;;;;4918516;29;20071;-82
2022/01/21 09:26:35;;;;;;;42.20;31.10;;;;;;;;;;4918314;29;20052;-81
2022/01/21 09:29:05;;;;;;;43.63;32.05;;;;;;;;;;4918261;29;20045;-81
2022/01/21 09:31:33;;;;;;;48.95;31.45;;;;;;;;;;4917933;29;20135;-82
2022/01/21 09:34:21;;;;;;;44.42;31.15;;;;;;;;;;4914486;29;20099;-82
2022/01/21 09:36:48;;;;;;;46.20;34.38;;;;;;;;;;4918243;29;20052;-81
2022/01/21 09:39:15;;;;;;;53.22;32.75;;;;;;;;;;4918091;29;20052;-81
2022/01/21 09:41:43;;;;;;;53.72;33.08;;;;;;;;;;4919197;29;20044;-81
2022/01/21 09:44:15;;;;;;;63.30;39.50;;;;;;;;;;4919233;29;20056;-81
2022/01/21 09:46:46;;;;;;;68.88;43.35;;;;;;;;;;4917378;29;20103;-82
2022/01/21 09:49:26;;;;;;;72.65;42.70;;;;;;;;;;4917309;29;20758;-81
2022/01/21 09:51:55;;;;;;;69.85;41.83;;;;;;;;;;4915692;29;20055;-82
2022/01/21 09:54:24;;;;;;;72.40;42.92;;;;;;;;;;4915682;29;20736;-82
2022/01/21 09:56:56;;;;;;;78.75;47.83;;;;;;;;;;4917294;29;20513;-81
2022/01/21 09:59:25;;;;;;;79.43;46.95;;;;;;;;;;4916031;29;20052;-81
2022/01/21 10:01:58;;;;;;;81.93;51.08;;;;;;;;;;4917992;29;20064;-81
2022/01/21 10:04:41;;;;;;;90.07;54.45;;;;;;;;;;4901545;29;20048;-81
2022/01/21 10:07:16;;;;;;;96.05;52.65;;;;;;;;;;4917029;29;20060;-81
2022/01/21 10:09:45;;;;;;;105.25;59.80;;;;;;;;;;4917707;29;20048;-82
2022/01/21 10:12:12;;;;;;;98.38;59.67;;;;;;;;;;4895189;29;20063;-81
2022/01/21 10:14:40;;;;;;;95.68;56.72;;;;;;;;;;4918497;29;20048;-82
2022/01/21 10:17:13;;;;;;;93.10;54.58;;;;;;;;;;4917429;29;20480;-81
2022/01/21 10:19:41;;;;;;;100.55;57.33;;;;;;;;;;4916425;29;20087;-81
2022/01/21 10:22:13;;;;;;;95.65;55.72;;;;;;;;;;4916743;29;20513;-81
2022/01/21 10:24:59;;;;;;;96.38;55.88;;;;;;;;;;4916756;29;20415;-82
2022/01/21 10:27:32;;;;;;;89.85;52.22;;;;;;;;;;4916853;29;20068;-82
2022/01/21 10:30:00;;;;;;;93.03;53.28;;;;;;;;;;4914509;29;20131;-81
2022/01/21 10:32:36;;;;;;;96.80;55.38;;;;;;;;;;4910236;29;20052;-81
2022/01/21 10:35:30;;;;;;;85.20;50.55;;;;;;;;;;4911329;29;20481;-82
2022/01/21 10:38:16;;;;;;;97.78;54.75;;;;;;;;;;4902841;29;20051;-82
2022/01/21 10:40:43;;;;;;;90.35;51.67;;;;;;;;;;4911883;29;20051;-81
2022/01/21 10:43:12;;;;;;;84.50;49.42;;;;;;;;;;4909849;29;20040;-81
2022/01/21 10:45:57;;;;;;;94.93;53.92;;;;;;;;;;4914126;29;20059;-82
2022/01/21 10:48:30;;;;;;;86.78;45.90;;;;;;;;;;4915381;29;20505;-81
2022/01/21 10:51:17;;;;;;;88.30;48.28;;;;;;;;;;4916151;29;20408;-81
2022/01/21 10:53:44;;;;;;;81.78;47.97;;;;;;;;;;4916036;29;20066;-81
2022/01/21 10:56:17;;;;;;;83.13;48.50;;;;;;;;;;4916276;29;20044;-81
2022/01/21 10:58:51;;;;;;;81.05;50.90;;;;;;;;;;4915664;29;20056;-82
2022/01/21 11:01:26;;;;;;;81.35;50.70;;;;;;;;;;4917628;29;20056;-81
2022/01/21 11:04:01;;;;;;;83.40;51.60;;;;;;;;;;4915977;29;20104;-81
2022/01/21 11:06:51;;;;;;;88.45;49.90;;;;;;;;;;4916234;29;20482;-83
2022/01/21 11:09:19;;;;;;;86.95;57.50;;;;;;;;;;4916250;29;20131;-83
2022/01/21 11:11:49;;;;;;;85.40;51.15;;;;;;;;;;4917276;29;20501;-83
2022/01/21 11:14:20;;;;;;;90.05;51.97;;;;;;;;;;4916213;29;20521;-84
2022/01/21 11:16:48;;;;;;;85.50;51.03;;;;;;;;;;4917306;29;20052;-83
2022/01/21 11:19:36;;;;;;;95.30;52.50;;;;;;;;;;4917054;29;20501;-83
2022/01/21 11:22:04;;;;;;;83.63;51.50;;;;;;;;;;4917048;29;20079;-83
2022/01/21 11:24:32;;;;;;;89.30;50.47;;;;;;;;;;4917129;29;20055;-83
2022/01/21 11:27:14;;;;;;;81.07;49.25;;;;;;;;;;4915570;29;20092;-82
2022/01/21 11:29:43;;;;;;;89.05;49.80;;;;;;;;;;4888667;29;20059;-85
2022/01/21 11:32:11;;;;;;;84.25;48.42;;;;;;;;;;4915615;29;20059;-83
2022/01/21 11:34:39;;;;;;;89.80;50.60;;;;;;;;;;4916357;29;20048;-84
2022/01/21 11:37:07;;;;;;;77.28;50.10;;;;;;;;;;4915687;29;20070;-84
2022/01/21 11:39:34;;;;;;;86.22;48.60;;;;;;;;;;4915458;29;20088;-83
2022/01/21 11:42:05;;;;;;;82.72;49.85;;;;;;;;;;4917177;29;20048;-83
2022/01/21 11:44:36;;;;;;;91.05;50.55;;;;;;;;;;4915868;29;20556;-84
2022/01/21 11:49:41;;;;;;;82.93;50.75;;;;;;;;;;4915122;29;20412;-84
2022/01/21 11:52:20;;;;;;;85.93;52.53;;;;;;;;;;4899742;29;20143;-84
2022/01/21 11:54:48;;;;;;;80.07;49.95;;;;;;;;;;4900340;29;20123;-84
2022/01/21 11:57:16;;;;;;;83.38;50.38;;;;;;;;;;4899578;29;20094;-83
2022/01/21 12:02:34;;;;;;;82.47;50.65;;;;;;;;;;4915233;29;20111;-82
2022/01/21 12:05:07;;;;;;;82.85;50.40;;;;;;;;;;4916587;29;20100;-82
2022/01/21 12:07:41;;;;;;;83.03;50.87;;;;;;;;;;4915283;29;20056;-82
2022/01/21 12:10:10;;;;;;;75.95;49.05;;;;;;;;;;4916801;29;20060;-82
2022/01/21 12:12:48;;;;;;;79.65;45.05;;;;;;;;;;4916268;29;20051;-82
2022/01/21 12:15:25;;;;;;;79.28;46.25;;;;;;;;;;4916604;29;20063;-82
2022/01/21 12:18:40;;;;;;;77.82;48.60;;;;;;;;;;4915175;29;20052;-82
2022/01/21 12:21:28;;;;;;;76.38;41.63;;;;;;;;;;4915280;29;20067;-82
2022/01/21 12:23:58;;;;;;;75.10;43.67;;;;;;;;;;4916428;29;20052;-82
2022/01/21 12:26:29;;;;;;;72.93;43.90;;;;;;;;;;4914984;29;20135;-82
2022/01/21 12:28:58;;;;;;;68.78;42.78;;;;;;;;;;4914510;29;20497;-82
2022/01/21 12:31:48;;;;;;;78.18;44.40;;;;;;;;;;4916142;29;20490;-81
2022/01/21 12:34:18;;;;;;;64.70;39.90;;;;;;;;;;4916002;29;20064;-83
2022/01/21 12:36:53;;;;;;;73.53;41.00;;;;;;;;;;4915094;29;20099;-81
2022/01/21 12:39:46;;;;;;;68.28;41.30;;;;;;;;;;4914297;29;20060;-82
2022/01/21 12:42:21;;;;;;;71.95;42.88;;;;;;;;;;4916027;29;20148;-82
2022/01/21 12:45:07;;;;;;;77.68;44.15;;;;;;;;;;4916498;29;20483;-83
2022/01/21 12:47:40;;;;;;;64.00;35.15;;;;;;;;;;4915915;29;20123;-84
2022/01/21 12:50:12;;;;;;;63.88;36.70;;;;;;;;;;4915893;29;20071;-83
2022/01/21 12:58:19;;;;;;;54.90;33.67;;;;;;;;;;4914981;29;20112;-82
2022/01/21 13:00:46;;;;;;;59.65;37.00;;;;;;;;;;4914829;29;20081;-83
2022/01/21 13:03:22;;;;;;;57.63;35.70;;;;;;;;;;4914505;29;20067;-83
2022/01/21 13:06:03;;;;;;;54.05;30.85;;;;;;;;;;4915933;29;20056;-83
2022/01/21 13:08:43;;;;;;;62.30;36.85;;;;;;;;;;4915123;29;20433;-87
2022/01/21 13:11:18;;;;;;;57.55;36.08;;;;;;;;;;4917049;29;20068;-83
2022/01/21 13:13:53;;;;;;;73.50;39.17;;;;;;;;;;4917587;29;20056;-82
2022/01/21 13:16:40;;;;;;;58.50;35.65;;;;;;;;;;4915259;29;20147;-82
2022/01/21 13:19:07;;;;;;;65.70;39.58;;;;;;;;;;4919265;29;20134;-80
2022/01/21 13:21:35;;;;;;;60.20;38.65;;;;;;;;;;4917673;29;20489;-80
2022/01/21 13:24:15;;;;;;;67.00;43.10;;;;;;;;;;4918259;29;20059;-83
2022/01/21 13:26:43;;;;;;;60.60;37.58;;;;;;;;;;4917908;29;20076;-83
2022/01/21 13:29:12;;;;;;;63.45;36.88;;;;;;;;;;4917895;29;20472;-84
2022/01/21 13:31:48;;;;;;;67.30;40.80;;;;;;;;;;4917548;29;20402;-83
2022/01/21 13:34:18;;;;;;;70.45;41.83;;;;;;;;;;4919259;29;20056;-83
2022/01/21 13:36:52;;;;;;;63.20;38.60;;;;;;;;;;4917086;29;21048;-81
2022/01/21 13:39:34;;;;;;;64.10;37.85;;;;;;;;;;4913334;29;20051;-82
2022/01/21 13:42:11;;;;;;;61.50;36.40;;;;;;;;;;4920053;29;20048;-79
2022/01/21 13:44:42;;;;;;;64.10;41.05;;;;;;;;;;4917343;29;20056;-82
2022/01/21 13:47:45;;;;;;;66.43;39.60;;;;;;;;;;4917067;29;20044;-80
2022/01/21 13:50:22;;;;;;;56.78;36.33;;;;;;;;;;4896752;29;20059;-82
2022/01/21 13:52:54;;;;;;;63.78;38.30;;;;;;;;;;4912294;29;20457;-81
2022/01/21 13:55:43;;;;;;;60.95;34.83;;;;;;;;;;4916532;29;20052;-81
2022/01/21 13:58:30;;;;;;;57.35;34.75;;;;;;;;;;4917420;29;20143;-80
2022/01/21 14:01:00;;;;;;;57.85;36.55;;;;;;;;;;4916425;29;20572;-83
2022/01/21 14:03:29;;;;;;;57.30;36.25;;;;;;;;;;4918745;29;20116;-81
2022/01/21 14:05:58;;;;;;;64.18;37.92;;;;;;;;;;4918066;29;20131;-81
2022/01/21 14:08:42;;;;;;;65.60;38.47;;;;;;;;;;4917570;29;20408;-78
2022/01/21 14:11:10;;;;;;;58.38;37.05;;;;;;;;;;4900916;29;20052;-82
2022/01/21 14:13:44;;;;;;;67.72;40.95;;;;;;;;;;4917354;29;20084;-81
2022/01/21 14:16:16;;;;;;;68.88;38.83;;;;;;;;;;4901721;29;20048;-83
2022/01/21 14:18:43;;;;;;;68.25;41.15;;;;;;;;;;4916698;29;20505;-82
2022/01/21 14:21:16;;;;;;;60.90;36.70;;;;;;;;;;4918561;29;20068;-82
2022/01/21 14:23:45;;;;;;;67.15;40.45;;;;;;;;;;4916267;29;20052;-82
2022/01/21 14:26:16;;;;;;;63.38;39.03;;;;;;;;;;4901279;29;20056;-81
2022/01/21 14:28:58;;;;;;;62.15;39.55;;;;;;;;;;4916796;29;20135;-81
2022/01/21 14:31:39;;;;;;;67.30;42.53;;;;;;;;;;4915242;29;20060;-82
2022/01/21 14:34:24;;;;;;;69.93;42.33;;;;;;;;;;4916373;29;20412;-80
2022/01/21 14:37:09;;;;;;;68.60;45.63;;;;;;;;;;4916658;29;20056;-81
2022/01/21 14:39:42;;;;;;;65.13;40.00;;;;;;;;;;4917003;29;20174;-82
2022/01/21 14:42:10;;;;;;;61.58;38.85;;;;;;;;;;4917088;29;20056;-81
2022/01/21 14:44:47;;;;;;;62.53;39.05;;;;;;;;;;4916697;29;20516;-81
2022/01/21 14:47:19;;;;;;;70.10;43.85;;;;;;;;;;4916588;29;20063;-81
2022/01/21 14:49:54;;;;;;;67.80;41.58;;;;;;;;;;4918233;29;20449;-82
2022/01/21 14:52:40;;;;;;;72.75;42.88;;;;;;;;;;4916107;29;20072;-81
2022/01/21 14:55:10;;;;;;;69.68;41.03;;;;;;;;;;4917371;29;20067;-80
2022/01/21 14:57:37;;;;;;;62.13;40.10;;;;;;;;;;4917280;29;20153;-82
2022/01/21 15:00:08;;;;;;;67.85;40.15;;;;;;;;;;4915771;29;20485;-82
2022/01/21 15:02:38;;;;;;;60.05;38.50;;;;;;;;;;4916073;29;20082;-81
2022/01/21 15:05:14;;;;;;;64.45;40.25;;;;;;;;;;4901086;29;20063;-82
2022/01/21 15:07:45;;;;;;;65.13;41.90;;;;;;;;;;4919078;29;20107;-81
2022/01/21 15:11:03;;;;;;;68.60;42.78;;;;;;;;;;4919242;29;20064;-82
2022/01/21 15:16:11;;;;;;;69.05;46.55;;;;;;;;;;4920267;29;20060;-81
2022/01/21 15:18:38;;;;;;;73.63;46.55;;;;;;;;;;4919004;29;20103;-81
2022/01/21 15:21:17;;;;;;;65.15;39.55;;;;;;;;;;4918273;29;20099;-81
2022/01/21 15:23:45;;;;;;;66.78;42.25;;;;;;;;;;4919242;29;20127;-81
2022/01/21 15:26:15;;;;;;;71.10;40.55;;;;;;;;;;4918452;29;20063;-81
2022/01/21 15:28:42;;;;;;;70.03;42.10;;;;;;;;;;4918647;29;20162;-81
2022/01/21 15:31:09;;;;;;;70.10;39.47;;;;;;;;;;4916788;29;20056;-80
2022/01/21 15:33:36;;;;;;;68.15;40.35;;;;;;;;;;4915615;29;20074;-82
2022/01/21 15:36:03;;;;;;;59.53;37.70;;;;;;;;;;4915488;29;20087;-80
2022/01/21 15:38:30;;;;;;;65.50;41.45;;;;;;;;;;4916336;29;20056;-79
2022/01/21 15:40:57;;;;;;;66.18;41.15;;;;;;;;;;4916285;29;20044;-80
2022/01/21 15:43:24;;;;;;;63.78;41.10;;;;;;;;;;4914447;29;20513;-79